Time;durP1;ratioP1;P1;durP2;ratioP2;P2;SDS_P1;SDS_P2;PMS_P1;PMS_P2;Temp;Humidity;BMP_temperature;BMP_pressure;BME280_temperature;BME280_humidity;BME280_pressure;Samples;Min_cycle;Max_cycle;Signal;HPM_P1;HPM_P2
2022/12/27 00:08:41;;;;;;;13.35;7.95;;;9.20;76.60;;;;;;21243535;27;20047;-58
2022/12/27 00:18:45;;;;;;;12.80;6.78;;;9.20;76.80;;;;;;21244105;27;20187;-60
2022/12/27 00:28:47;;;;;;;13.75;7.20;;;9.10;76.80;;;;;;21260130;27;20043;-57
2022/12/27 00:38:50;;;;;;;13.32;7.30;;;9.00;77.30;;;;;;21259217;27;20051;-56
2022/12/27 00:48:54;;;;;;;10.82;6.72;;;9.00;77.60;;;;;;21258831;27;20142;-61
2022/12/27 00:58:58;;;;;;;8.10;5.03;;;8.90;77.70;;;;;;21258439;27;20043;-60
2022/12/27 01:09:01;;;;;;;12.13;6.28;;;8.90;77.40;;;;;;21256633;27;20083;-58
2022/12/27 01:19:03;;;;;;;9.52;6.28;;;8.70;77.20;;;;;;21256919;27;20054;-56
2022/12/27 01:29:05;;;;;;;11.60;7.18;;;8.60;77.40;;;;;;21255810;27;20142;-58
2022/12/27 01:39:10;;;;;;;11.25;6.65;;;8.50;77.60;;;;;;21254717;27;20559;-56
2022/12/27 01:49:12;;;;;;;15.23;6.73;;;8.40;77.40;;;;;;21253702;27;20505;-55
2022/12/27 01:59:14;;;;;;;17.05;7.95;;;8.30;77.40;;;;;;21231038;27;20071;-56
2022/12/27 02:09:24;;;;;;;14.98;8.05;;;8.20;77.40;;;;;;21248815;27;20052;-56
2022/12/27 02:19:41;;;;;;;13.75;7.90;;;8.20;77.60;;;;;;21251236;27;20043;-55
2022/12/27 02:29:58;;;;;;;11.55;8.45;;;8.10;77.80;;;;;;21250757;27;20554;-60
2022/12/27 03:33:14;;;;;;;15.95;7.75;;;7.70;77.80;;;;;;21247263;27;20047;-56
2022/12/27 03:43:18;;;;;;;12.38;7.00;;;7.70;77.90;;;;;;21245824;27;20043;-55
2022/12/27 03:53:29;;;;;;;11.63;7.30;;;7.70;77.80;;;;;;21263278;27;20426;-57
2022/12/27 04:03:31;;;;;;;15.98;8.80;;;7.60;77.60;;;;;;21262507;27;20051;-55
2022/12/27 04:54:56;;;;;;;13.98;7.95;;;7.30;77.50;;;;;;21257585;27;20047;-57
2022/12/27 05:04:59;;;;;;;12.02;7.53;;;7.20;78.00;;;;;;21260408;27;20146;-55
2022/12/27 05:15:00;;;;;;;11.50;7.15;;;7.20;78.00;;;;;;21258114;27;20493;-55
2022/12/27 05:35:23;;;;;;;12.95;7.75;;;7.10;78.00;;;;;;21255811;27;20047;-56
2022/12/27 05:45:25;;;;;;;27.85;9.18;;;7.00;77.90;;;;;;21254331;27;20115;-56
2022/12/27 05:55:27;;;;;;;13.85;6.90;;;7.00;77.90;;;;;;21253407;27;20046;-56
2022/12/27 06:05:29;;;;;;;10.45;6.95;;;7.00;77.30;;;;;;21251816;27;20057;-55
2022/12/27 06:15:31;;;;;;;9.23;6.00;;;7.00;77.60;;;;;;21251333;27;20124;-63
2022/12/27 06:25:32;;;;;;;11.35;7.40;;;6.90;77.60;;;;;;21233253;27;20043;-59
2022/12/27 06:35:34;;;;;;;16.00;10.25;;;6.90;78.00;;;;;;21249758;27;20616;-54
2022/12/27 06:45:35;;;;;;;12.30;7.18;;;6.80;77.90;;;;;;21250126;27;20051;-64
2022/12/27 06:55:37;;;;;;;12.85;7.30;;;6.80;77.70;;;;;;21249842;27;20054;-55
2022/12/27 07:05:39;;;;;;;11.38;7.25;;;6.80;77.40;;;;;;21249272;27;20039;-66
2022/12/27 07:15:40;;;;;;;10.85;7.85;;;6.60;77.70;;;;;;21274635;27;20507;-57
2022/12/27 07:25:42;;;;;;;15.40;8.20;;;6.60;78.10;;;;;;21276112;27;20149;-56
2022/12/27 07:35:45;;;;;;;14.73;6.72;;;6.70;78.10;;;;;;21275767;27;20051;-56
2022/12/27 07:45:46;;;;;;;9.80;7.05;;;6.70;76.60;;;;;;21276257;27;20133;-57
2022/12/27 07:55:49;;;;;;;13.48;7.20;;;6.70;76.70;;;;;;21274942;27;20413;-58
2022/12/27 08:05:51;;;;;;;10.75;6.93;;;6.60;76.80;;;;;;21274647;27;20487;-56
2022/12/27 08:15:54;;;;;;;13.07;6.57;;;6.50;77.50;;;;;;21275832;27;20494;-56
2022/12/27 08:25:56;;;;;;;9.35;6.90;;;6.60;77.70;;;;;;21263301;27;20055;-58
2022/12/27 08:35:57;;;;;;;18.35;11.90;;;6.60;78.00;;;;;;21259708;27;20075;-55
2022/12/27 08:46:04;;;;;;;15.50;8.50;;;6.80;78.20;;;;;;21259416;27;20054;-56
2022/12/27 08:56:05;;;;;;;14.70;9.52;;;6.90;78.20;;;;;;21257456;27;20083;-58
2022/12/27 09:06:16;;;;;;;14.40;8.30;;;7.20;77.80;;;;;;21256644;27;20103;-58
2022/12/27 09:16:21;;;;;;;15.48;9.32;;;7.50;77.30;;;;;;21256836;27;20043;-60
2022/12/27 09:26:28;;;;;;;14.90;9.60;;;7.80;76.50;;;;;;21256533;27;20054;-61
2022/12/27 09:36:30;;;;;;;16.88;9.02;;;8.00;75.10;;;;;;21252933;27;20447;-69
2022/12/27 09:46:52;;;;;;;14.00;7.88;;;7.90;74.80;;;;;;21253541;27;20054;-56
2022/12/27 09:56:56;;;;;;;20.02;9.98;;;8.10;75.00;;;;;;21252360;27;20384;-56
2022/12/27 10:07:23;;;;;;;15.45;9.30;;;8.30;75.30;;;;;;21253308;27;20422;-63
2022/12/27 10:17:31;;;;;;;13.55;8.73;;;8.60;75.30;;;;;;21252482;27;20047;-60
2022/12/27 10:27:32;;;;;;;17.27;10.77;;;9.00;74.70;;;;;;21250695;27;20047;-62
2022/12/27 10:37:34;;;;;;;21.27;10.30;;;9.30;74.30;;;;;;21250182;27;20107;-60
2022/12/27 10:47:36;;;;;;;16.77;10.75;;;9.70;74.00;;;;;;21249293;27;20051;-59
2022/12/27 10:57:38;;;;;;;18.90;10.18;;;10.00;73.20;;;;;;21248522;27;20043;-57
2022/12/27 11:07:39;;;;;;;20.63;11.30;;;10.30;72.30;;;;;;21247506;27;20051;-57
2022/12/27 11:17:53;;;;;;;17.83;10.90;;;10.50;71.30;;;;;;21247484;28;20130;-58
2022/12/27 11:28:03;;;;;;;17.60;9.27;;;10.70;71.00;;;;;;21251082;28;20051;-67
2022/12/27 11:38:12;;;;;;;16.70;9.55;;;11.00;70.90;;;;;;21250163;28;20050;-58
2022/12/27 11:48:27;;;;;;;13.38;8.60;;;11.20;70.10;;;;;;21247313;28;20104;-56
2022/12/27 11:58:42;;;;;;;16.92;10.48;;;11.50;69.80;;;;;;21257986;27;20071;-58
2022/12/27 12:09:04;;;;;;;18.48;9.90;;;11.80;69.00;;;;;;21273432;27;20142;-56
2022/12/27 12:19:50;;;;;;;17.65;9.27;;;12.00;68.80;;;;;;21245924;27;20043;-62
2022/12/27 12:30:14;;;;;;;19.40;11.93;;;12.20;68.10;;;;;;21262007;27;20047;-63
2022/12/27 12:40:27;;;;;;;21.40;13.52;;;12.40;68.00;;;;;;21258298;27;20105;-61
2022/12/27 12:50:53;;;;;;;21.35;12.73;;;12.60;68.40;;;;;;21258483;27;20130;-61
2022/12/27 13:01:12;;;;;;;18.70;11.07;;;12.80;67.20;;;;;;21258057;27;20069;-62
2022/12/27 13:11:26;;;;;;;16.77;9.77;;;12.80;67.20;;;;;;21257226;27;20061;-57
2022/12/27 13:21:59;;;;;;;15.77;9.35;;;13.00;66.20;;;;;;21256672;27;20069;-61
2022/12/27 13:32:31;;;;;;;15.48;9.35;;;13.10;66.00;;;;;;21256885;27;20585;-64
2022/12/27 13:42:43;;;;;;;16.02;8.35;;;13.20;66.00;;;;;;21254578;27;20065;-65
2022/12/27 13:52:45;;;;;;;15.90;8.60;;;13.30;65.80;;;;;;21253817;27;20065;-62
2022/12/27 14:03:35;;;;;;;14.10;7.35;;;13.30;65.60;;;;;;21244932;27;20051;-60
2022/12/27 14:13:42;;;;;;;16.70;9.00;;;13.40;65.90;;;;;;20831011;28;20056;-61
2022/12/27 14:24:19;;;;;;;19.10;10.05;;;13.50;65.50;;;;;;20868104;28;20081;-58
2022/12/27 14:34:38;;;;;;;18.85;9.07;;;13.50;64.60;;;;;;20852545;28;20179;-58
2022/12/27 14:44:58;;;;;;;17.90;10.15;;;13.50;64.60;;;;;;21113737;27;20541;-62
2022/12/27 14:55:34;;;;;;;18.20;9.40;;;13.60;65.30;;;;;;21249696;27;20073;-60
2022/12/27 15:06:01;;;;;;;14.38;8.57;;;13.70;64.90;;;;;;21247365;27;20043;-59
2022/12/27 15:16:02;;;;;;;16.02;8.68;;;13.60;65.30;;;;;;21228701;28;20047;-56
2022/12/27 15:26:34;;;;;;;14.45;7.70;;;13.70;64.70;;;;;;21246504;28;20047;-60
2022/12/27 15:36:46;;;;;;;18.02;7.63;;;13.70;65.00;;;;;;21262723;27;20077;-63
2022/12/27 15:47:13;;;;;;;14.82;6.63;;;13.70;65.20;;;;;;21244906;27;20484;-60
2022/12/27 15:57:33;;;;;;;14.63;7.03;;;13.60;65.00;;;;;;21263467;27;20051;-66
2022/12/27 16:07:50;;;;;;;15.88;6.85;;;13.60;65.40;;;;;;21265190;27;20050;-63
2022/12/27 16:17:55;;;;;;;11.48;7.25;;;13.60;65.50;;;;;;21271143;27;20533;-67
2022/12/27 16:28:14;;;;;;;24.58;8.65;;;13.50;65.80;;;;;;21260022;27;20043;-57
2022/12/27 16:38:21;;;;;;;18.63;10.50;;;13.50;66.10;;;;;;21259173;27;20065;-61
2022/12/27 16:48:45;;;;;;;16.65;8.60;;;13.40;66.30;;;;;;21257485;27;20050;-58
2022/12/27 16:58:47;;;;;;;24.95;9.90;;;13.40;66.80;;;;;;21258546;27;20081;-61
2022/12/27 17:09:07;;;;;;;39.75;21.05;;;13.30;67.30;;;;;;21254781;27;20133;-57
2022/12/27 17:19:17;;;;;;;24.48;12.30;;;13.20;67.90;;;;;;21255244;27;20053;-65
2022/12/27 17:29:21;;;;;;;27.20;13.80;;;13.10;69.10;;;;;;21255442;27;20047;-58
2022/12/27 17:39:58;;;;;;;34.50;16.27;;;13.00;69.40;;;;;;21254366;27;20529;-60
2022/12/27 17:50:02;;;;;;;25.00;12.25;;;12.90;70.10;;;;;;21254028;27;20130;-57
2022/12/27 18:00:19;;;;;;;26.17;13.37;;;12.70;70.80;;;;;;21251427;27;20065;-57
2022/12/27 18:10:25;;;;;;;18.63;10.68;;;12.70;71.00;;;;;;21252070;27;20051;-57
2022/12/27 18:20:29;;;;;;;20.52;12.90;;;12.50;71.10;;;;;;21251087;27;20158;-56
2022/12/27 18:30:47;;;;;;;25.33;13.73;;;12.50;71.50;;;;;;21232017;27;20068;-59
2022/12/27 18:41:05;;;;;;;32.83;16.92;;;12.40;72.10;;;;;;21250480;27;20460;-56
2022/12/27 18:51:08;;;;;;;29.70;14.35;;;12.30;72.90;;;;;;21247636;27;20466;-56
2022/12/27 19:01:18;;;;;;;23.85;13.70;;;12.10;73.50;;;;;;21247749;27;20397;-61
2022/12/27 19:11:27;;;;;;;27.92;11.93;;;12.10;73.90;;;;;;21247017;27;20494;-63
2022/12/27 19:21:37;;;;;;;22.67;12.00;;;11.90;74.20;;;;;;21246676;28;20074;-66
2022/12/27 19:31:42;;;;;;;25.33;13.35;;;11.90;74.50;;;;;;21252168;28;20047;-60
2022/12/27 19:41:45;;;;;;;23.85;11.77;;;11.70;74.80;;;;;;21244720;28;20069;-60
2022/12/27 19:51:47;;;;;;;20.30;10.63;;;11.60;75.10;;;;;;21245444;28;20061;-57
2022/12/27 20:01:49;;;;;;;15.20;8.88;;;11.40;75.40;;;;;;21245394;28;20039;-57
2022/12/27 20:11:51;;;;;;;16.23;7.22;;;11.20;75.60;;;;;;21247484;28;20087;-62
2022/12/27 20:21:53;;;;;;;17.05;10.07;;;11.00;75.80;;;;;;21238235;27;20047;-56
2022/12/27 20:31:57;;;;;;;16.23;6.43;;;10.80;75.90;;;;;;21258884;27;20104;-58
2022/12/27 20:42:01;;;;;;;14.80;7.40;;;10.70;76.30;;;;;;21258589;27;20043;-62
2022/12/27 20:52:03;;;;;;;13.43;6.47;;;10.50;76.50;;;;;;21257845;27;20047;-56
2022/12/27 21:02:04;;;;;;;15.10;7.15;;;10.40;76.60;;;;;;21239234;27;20040;-57
2022/12/27 21:12:06;;;;;;;15.25;8.55;;;10.30;76.70;;;;;;21257477;27;20503;-66
2022/12/27 21:22:09;;;;;;;11.82;5.63;;;10.20;77.00;;;;;;21256810;27;20428;-67
2022/12/27 21:32:12;;;;;;;12.73;7.20;;;10.10;76.70;;;;;;21254209;27;20055;-56
2022/12/27 21:42:14;;;;;;;9.20;5.80;;;9.90;77.00;;;;;;21254067;27;20051;-58
2022/12/27 21:52:16;;;;;;;14.50;6.40;;;9.80;77.10;;;;;;21254954;27;20051;-56
2022/12/27 22:02:18;;;;;;;9.13;5.93;;;9.70;77.30;;;;;;21253606;27;20047;-56
2022/12/27 22:12:21;;;;;;;9.70;6.38;;;9.50;77.70;;;;;;21253508;27;20521;-66
2022/12/27 22:22:25;;;;;;;12.10;7.60;;;9.50;77.80;;;;;;21252757;27;20051;-57
2022/12/27 22:32:29;;;;;;;14.13;7.40;;;9.40;77.80;;;;;;21250937;27;20047;-57
2022/12/27 22:42:33;;;;;;;13.45;5.85;;;9.30;77.60;;;;;;21249336;27;20039;-62
2022/12/27 22:52:36;;;;;;;13.07;6.25;;;9.20;77.50;;;;;;21249519;27;20483;-58
2022/12/27 23:02:39;;;;;;;16.17;7.07;;;9.00;77.70;;;;;;21248470;27;20043;-57
2022/12/27 23:12:42;;;;;;;10.88;6.47;;;8.80;78.10;;;;;;21249324;27;20051;-57
2022/12/27 23:22:44;;;;;;;11.90;7.35;;;8.80;78.20;;;;;;21248080;28;20494;-60
2022/12/27 23:32:46;;;;;;;11.05;6.43;;;8.70;78.40;;;;;;21248055;28;20130;-58
2022/12/27 23:42:47;;;;;;;13.43;6.50;;;8.60;78.60;;;;;;21228558;28;20047;-57
2022/12/27 23:52:49;;;;;;;14.63;6.53;;;8.50;78.70;;;;;;21252665;27;20384;-57
